Time;durP1;ratioP1;P1;durP2;ratioP2;P2;SDS_P1;SDS_P2;PMS_P1;PMS_P2;Temp;Humidity;BMP_temperature;BMP_pressure;BME280_temperature;BME280_humidity;BME280_pressure;Samples;Min_cycle;Max_cycle;Signal;HPM_P1;HPM_P2
2022/05/10 00:01:38;;;;;;;0.00;0.00;;;;;;;16.98;54.29;102085.34;5034059;28;20106;-78
2022/05/10 00:04:06;;;;;;;0.10;0.10;;;;;;;16.96;54.19;102077.38;5035757;28;20036;-78
2022/05/10 00:06:37;;;;;;;0.57;0.57;;;;;;;16.99;53.68;102073.75;5031578;28;20018;-79
2022/05/10 00:09:05;;;;;;;0.65;0.65;;;;;;;16.96;54.12;102065.81;5034737;28;20041;-78
2022/05/10 00:11:31;;;;;;;0.10;0.10;;;;;;;16.97;53.31;102067.53;5035980;28;20515;-79
2022/05/10 00:13:57;;;;;;;0.10;0.10;;;;;;;16.99;53.78;102068.38;5038475;28;20033;-78
2022/05/10 00:16:24;;;;;;;0.63;0.63;;;;;;;17.01;53.66;102063.88;5029958;28;20030;-79
2022/05/10 00:18:50;;;;;;;0.15;0.10;;;;;;;17.03;53.39;102066.50;5032892;28;20092;-78
2022/05/10 00:21:22;;;;;;;0.03;0.03;;;;;;;17.04;54.44;102061.09;5034423;28;20037;-78
2022/05/10 00:23:48;;;;;;;0.10;0.10;;;;;;;17.03;54.52;102061.16;5030013;28;20044;-78
2022/05/10 00:26:15;;;;;;;0.38;0.38;;;;;;;17.01;54.07;102055.84;5036662;28;20032;-78
2022/05/10 00:28:41;;;;;;;0.10;0.10;;;;;;;17.00;54.91;102056.75;5032949;28;21006;-79
2022/05/10 00:31:09;;;;;;;0.50;0.50;;;;;;;17.02;54.40;102052.22;5034117;28;20042;-78
2022/05/10 00:33:37;;;;;;;0.00;0.00;;;;;;;17.01;54.54;102058.53;5032696;28;20036;-78
2022/05/10 00:36:05;;;;;;;0.22;0.22;;;;;;;17.02;54.73;102059.38;5032425;28;20486;-78
2022/05/10 00:38:35;;;;;;;0.10;0.10;;;;;;;17.01;54.96;102053.16;5032989;28;20072;-77
2022/05/10 00:41:11;;;;;;;0.10;0.10;;;;;;;17.03;55.26;102056.66;5033758;28;20599;-78
2022/05/10 00:43:42;;;;;;;0.03;0.03;;;;;;;17.02;54.27;102060.25;5034230;28;20029;-78
2022/05/10 00:46:35;;;;;;;0.05;0.05;;;;;;;17.09;54.91;102051.13;5032737;28;20021;-78
2022/05/10 00:49:24;;;;;;;0.00;0.00;;;;;;;17.05;54.82;102048.59;5036527;28;20036;-78
2022/05/10 00:52:14;;;;;;;0.20;0.20;;;;;;;17.13;54.70;102039.44;5032866;28;20056;-79
2022/05/10 00:54:50;;;;;;;0.20;0.20;;;;;;;17.08;55.24;102041.34;5031008;28;20025;-78
2022/05/10 00:57:43;;;;;;;0.00;0.00;;;;;;;17.14;54.20;102038.47;5036372;28;20026;-78
2022/05/10 01:08:18;;;;;;;0.15;0.15;;;;;;;17.23;54.15;102026.63;5064700;28;20139;-78
2022/05/10 01:10:52;;;;;;;0.05;0.05;;;;;;;17.21;54.46;102027.59;5044262;28;20033;-79
2022/05/10 01:13:37;;;;;;;0.00;0.00;;;;;;;17.24;54.56;102014.13;5044325;28;20033;-78
2022/05/10 01:18:44;;;;;;;0.17;0.17;;;;;;;17.22;54.43;102008.81;5077174;27;20424;-79
2022/05/10 01:24:38;;;;;;;0.20;0.15;;;;;;;17.31;54.27;102002.31;4996048;28;20420;-82
2022/05/10 01:27:38;;;;;;;25.75;1.50;;;;;;;17.28;54.73;102003.28;4971050;28;20081;-81
2022/05/10 01:35:44;;;;;;;0.17;0.17;;;;;;;17.22;54.24;101997.22;5067791;28;20427;-79
2022/05/10 01:41:18;;;;;;;1.10;1.00;;;;;;;17.26;55.16;101986.38;5040654;27;20411;-79
2022/05/10 01:43:54;;;;;;;0.00;0.00;;;;;;;17.25;55.62;101987.28;5042417;28;20033;-79
2022/05/10 01:46:25;;;;;;;0.00;0.00;;;;;;;17.24;55.10;101980.19;5041802;28;20045;-78
2022/05/10 01:49:00;;;;;;;0.00;0.00;;;;;;;17.26;55.64;101980.16;5040555;28;20047;-78
2022/05/10 01:51:33;;;;;;;0.20;0.20;;;;;;;17.24;55.40;101969.47;5038490;28;20036;-78
2022/05/10 01:54:00;;;;;;;0.10;0.10;;;;;;;17.26;55.19;101972.13;5039345;28;20041;-78
2022/05/10 01:56:29;;;;;;;0.00;0.00;;;;;;;17.26;56.44;101962.28;5037336;28;20030;-78
2022/05/10 01:58:56;;;;;;;0.00;0.00;;;;;;;17.28;55.82;101959.53;5040091;28;20048;-78
2022/05/10 02:01:31;;;;;;;0.10;0.10;;;;;;;17.32;56.60;101960.31;5038613;28;20195;-78
2022/05/10 02:04:11;;;;;;;0.38;0.38;;;;;;;17.33;55.50;101952.22;5039710;28;20030;-79
2022/05/10 02:09:35;;;;;;;0.20;0.20;;;;;;;17.38;56.22;101952.97;5073817;28;20432;-79
2022/05/10 02:12:09;;;;;;;0.00;0.00;;;;;;;17.39;56.61;101957.41;5073598;28;20032;-78
2022/05/10 02:15:02;;;;;;;0.13;0.13;;;;;;;17.46;56.53;101953.63;5073239;28;20119;-79
2022/05/10 02:20:16;;;;;;;0.30;0.30;;;;;;;17.42;56.29;101943.94;5087791;27;20408;-78
2022/05/10 02:23:07;;;;;;;0.38;0.38;;;;;;;17.50;56.59;101938.31;5095328;28;20035;-78
2022/05/10 02:25:38;;;;;;;0.00;0.00;;;;;;;17.43;56.58;101934.97;5084018;28;20059;-77
2022/05/10 02:28:29;;;;;;;0.57;0.57;;;;;;;17.46;56.93;101929.50;5094888;28;20024;-78
2022/05/10 02:31:00;;;;;;;0.00;0.00;;;;;;;17.46;56.45;101928.66;5088888;28;20220;-78
2022/05/10 02:33:28;;;;;;;0.10;0.10;;;;;;;17.46;56.75;101926.81;5084380;28;20043;-78
2022/05/10 02:35:57;;;;;;;0.00;0.00;;;;;;;17.51;56.49;101921.34;5087274;28;20032;-79
2022/05/10 02:41:06;;;;;;;0.43;0.43;;;;;;;17.56;56.27;101921.19;5072411;28;20403;-79
2022/05/10 02:43:40;;;;;;;0.00;0.00;;;;;;;17.60;55.91;101912.13;5047527;28;20095;-78
2022/05/10 02:46:07;;;;;;;0.00;0.00;;;;;;;17.62;55.56;101916.50;5056212;28;20055;-78
2022/05/10 02:48:36;;;;;;;0.35;0.35;;;;;;;17.66;55.54;101917.28;5050788;28;20055;-78
2022/05/10 02:51:03;;;;;;;0.00;0.00;;;;;;;17.66;55.42;101911.91;5044697;28;20043;-78
2022/05/10 02:53:29;;;;;;;0.17;0.17;;;;;;;17.73;55.12;101917.94;5042225;28;20037;-79
2022/05/10 02:56:01;;;;;;;0.10;0.10;;;;;;;17.77;55.23;101908.91;5037680;28;20407;-79
2022/05/10 02:58:49;;;;;;;2.15;1.48;;;;;;;17.87;54.53;101898.72;5044096;28;20029;-78
2022/05/10 03:01:23;;;;;;;0.00;0.00;;;;;;;17.79;54.64;101907.91;5046888;28;20130;-79
2022/05/10 03:03:49;;;;;;;0.15;0.15;;;;;;;17.81;54.62;101898.91;5036631;28;20036;-78
2022/05/10 03:06:21;;;;;;;0.00;0.00;;;;;;;17.83;54.90;101903.31;5038413;28;20115;-79
2022/05/10 03:08:48;;;;;;;0.00;0.00;;;;;;;17.81;54.72;101901.59;5035758;28;20041;-79
2022/05/10 03:11:15;;;;;;;0.17;0.17;;;;;;;17.81;54.41;101891.78;5039478;28;20033;-78
2022/05/10 03:13:43;;;;;;;0.20;0.20;;;;;;;17.83;54.69;101891.72;5035876;28;20037;-79
2022/05/10 03:16:09;;;;;;;0.40;0.40;;;;;;;17.84;54.53;101888.09;5039020;28;20486;-78
2022/05/10 03:18:36;;;;;;;0.05;0.05;;;;;;;17.82;54.41;101884.59;5037216;28;20021;-79
2022/05/10 03:21:03;;;;;;;0.00;0.00;;;;;;;17.84;54.51;101880.06;5039525;28;20128;-78
2022/05/10 03:23:29;;;;;;;0.10;0.10;;;;;;;17.85;54.28;101880.00;5054759;28;20573;-78
2022/05/10 03:25:57;;;;;;;0.00;0.00;;;;;;;17.88;54.16;101877.22;5049261;28;20029;-78
2022/05/10 03:28:24;;;;;;;0.20;0.20;;;;;;;17.89;54.19;101875.41;5053869;28;20035;-78
2022/05/10 03:30:50;;;;;;;0.00;0.00;;;;;;;17.90;54.02;101872.69;5040590;28;20033;-78
2022/05/10 03:33:17;;;;;;;0.20;0.20;;;;;;;17.91;54.29;101868.22;5038724;28;20092;-78
2022/05/10 03:35:44;;;;;;;1.75;0.68;;;;;;;17.92;54.41;101870.81;5034932;28;20033;-78
2022/05/10 03:38:10;;;;;;;0.00;0.00;;;;;;;17.93;54.19;101872.59;5039689;28;20056;-78
2022/05/10 03:40:36;;;;;;;0.63;0.47;;;;;;;17.94;54.03;101869.00;5035662;28;20518;-79
2022/05/10 03:43:02;;;;;;;0.70;0.68;;;;;;;17.93;54.08;101866.31;5040550;28;20033;-79
2022/05/10 03:45:29;;;;;;;0.10;0.10;;;;;;;17.92;53.84;101869.97;5052336;28;20041;-79
2022/05/10 03:47:55;;;;;;;0.45;0.45;;;;;;;17.91;53.83;101862.84;5039830;28;20541;-79
2022/05/10 03:50:24;;;;;;;0.25;0.25;;;;;;;17.92;54.03;101864.59;5041653;28;20053;-78
2022/05/10 03:52:53;;;;;;;0.10;0.10;;;;;;;17.92;53.74;101862.78;5023414;28;20033;-79
2022/05/10 03:55:22;;;;;;;1.20;1.17;;;;;;;17.93;53.78;101858.28;5028010;28;20415;-79
2022/05/10 03:57:50;;;;;;;2.03;0.85;;;;;;;17.89;53.79;101856.66;5023635;28;20032;-79
2022/05/10 04:00:20;;;;;;;0.17;0.17;;;;;;;17.92;54.00;101853.88;5023107;28;20483;-79
2022/05/10 04:02:46;;;;;;;0.32;0.32;;;;;;;17.90;54.02;101856.59;5025637;28;20037;-78
2022/05/10 04:05:14;;;;;;;0.17;0.17;;;;;;;17.89;53.75;101854.84;5025236;28;20068;-78
2022/05/10 04:07:58;;;;;;;0.05;0.05;;;;;;;17.91;53.64;101849.44;5026618;28;20072;-79
2022/05/10 04:10:27;;;;;;;0.17;0.17;;;;;;;17.93;53.93;101844.88;5024833;28;20525;-78
2022/05/10 04:12:53;;;;;;;0.43;0.43;;;;;;;17.90;54.19;101851.22;5027361;28;20830;-78
2022/05/10 04:15:20;;;;;;;0.55;0.38;;;;;;;17.91;54.10;101852.13;5028294;28;20061;-78
2022/05/10 04:17:46;;;;;;;0.15;0.15;;;;;;;17.90;53.89;101839.63;5030884;28;20052;-78
2022/05/10 04:20:14;;;;;;;4.53;1.05;;;;;;;17.89;54.05;101845.94;5022571;28;20156;-78
2022/05/10 04:22:40;;;;;;;26.63;1.60;;;;;;;17.91;53.55;101838.72;5028369;28;20030;-78
2022/05/10 04:25:07;;;;;;;0.10;0.10;;;;;;;17.91;53.53;101839.56;5029771;28;20030;-78
2022/05/10 04:27:33;;;;;;;0.00;0.00;;;;;;;17.93;53.53;101835.06;5024966;28;20038;-78
2022/05/10 04:29:59;;;;;;;1.17;1.17;;;;;;;17.93;53.50;101834.16;5029682;28;20029;-78
2022/05/10 04:32:25;;;;;;;0.00;0.00;;;;;;;17.99;53.18;101833.09;5034631;28;20030;-78
2022/05/10 04:34:51;;;;;;;1.30;0.40;;;;;;;18.00;53.49;101829.50;5036654;28;20037;-79
2022/05/10 04:37:18;;;;;;;0.20;0.20;;;;;;;18.03;53.60;101832.97;5029991;28;20030;-79
2022/05/10 04:42:30;;;;;;;0.00;0.00;;;;;;;18.08;53.32;101839.03;5021679;28;20407;-79
2022/05/10 04:44:56;;;;;;;0.10;0.10;;;;;;;18.14;53.17;101826.31;5022563;28;20535;-78
2022/05/10 04:47:22;;;;;;;0.40;0.40;;;;;;;18.17;53.17;101823.50;5029554;28;20504;-79
2022/05/10 04:49:48;;;;;;;0.03;0.03;;;;;;;18.17;52.92;101831.56;5024734;28;20260;-79
2022/05/10 04:52:14;;;;;;;0.45;0.45;;;;;;;18.20;52.70;101826.09;5023511;28;20041;-79
2022/05/10 04:54:40;;;;;;;0.85;0.70;;;;;;;18.23;52.80;101812.56;5030831;28;20032;-79
2022/05/10 04:57:07;;;;;;;1.52;0.75;;;;;;;18.27;52.55;101823.13;5023775;28;20049;-79
2022/05/10 04:59:33;;;;;;;0.00;0.00;;;;;;;18.33;52.54;101822.03;5024288;28;20553;-79
2022/05/10 05:01:59;;;;;;;0.60;0.60;;;;;;;18.35;52.59;101820.16;5036666;28;20101;-78
2022/05/10 05:04:25;;;;;;;0.30;0.30;;;;;;;18.38;52.55;101825.44;5042712;28;20037;-79
2022/05/10 05:06:52;;;;;;;0.08;0.08;;;;;;;18.41;52.10;101825.28;5046412;28;20038;-79
2022/05/10 05:09:18;;;;;;;0.40;0.40;;;;;;;18.46;52.16;101813.53;5030631;28;20021;-79
2022/05/10 05:11:45;;;;;;;0.68;0.68;;;;;;;18.50;51.91;101817.84;5034660;28;20108;-80
2022/05/10 05:14:11;;;;;;;0.22;0.22;;;;;;;18.52;52.07;101810.63;5019793;28;20041;-79
2022/05/10 05:16:38;;;;;;;0.73;0.73;;;;;;;18.56;51.81;101810.44;5026330;28;20033;-79
2022/05/10 05:19:05;;;;;;;0.40;0.40;;;;;;;18.60;51.94;101816.56;5028557;28;20048;-78
2022/05/10 05:21:31;;;;;;;0.35;0.35;;;;;;;18.69;51.69;101812.63;5028507;28;20037;-79
2022/05/10 05:23:57;;;;;;;0.85;0.85;;;;;;;18.72;51.68;101808.03;5029393;28;20038;-80
2022/05/10 05:26:24;;;;;;;0.30;0.30;;;;;;;18.78;51.24;101811.41;5034354;28;20026;-79
2022/05/10 05:28:51;;;;;;;1.60;1.40;;;;;;;18.83;51.36;101804.94;5036798;28;20462;-79
2022/05/10 05:31:18;;;;;;;2.83;0.93;;;;;;;18.86;51.30;101803.94;5036384;28;20034;-79
2022/05/10 05:33:44;;;;;;;0.30;0.30;;;;;;;18.94;51.14;101807.25;5033991;28;20515;-79
2022/05/10 05:36:10;;;;;;;0.50;0.38;;;;;;;18.95;51.13;101814.34;5035010;28;20483;-79
2022/05/10 05:38:36;;;;;;;1.08;1.08;;;;;;;18.98;50.81;101811.53;5034634;28;20040;-79
2022/05/10 05:41:02;;;;;;;0.00;0.00;;;;;;;19.06;50.67;101811.22;5033552;28;20509;-79
2022/05/10 05:43:28;;;;;;;3.20;0.93;;;;;;;19.12;50.76;101813.66;5034382;28;20041;-79
2022/05/10 05:45:54;;;;;;;0.50;0.50;;;;;;;19.21;50.64;101815.09;5034369;28;20029;-79
2022/05/10 05:48:21;;;;;;;0.70;0.70;;;;;;;19.29;50.79;101812.09;5034105;28;20036;-79
2022/05/10 05:50:47;;;;;;;1.17;1.08;;;;;;;19.39;50.65;101810.78;5028415;28;20733;-79
2022/05/10 05:53:13;;;;;;;0.47;0.47;;;;;;;19.45;50.92;101812.34;5033496;28;20547;-79
2022/05/10 05:55:42;;;;;;;4.88;1.88;;;;;;;19.56;50.73;101812.75;5034859;28;20448;-80
2022/05/10 05:58:10;;;;;;;0.13;0.13;;;;;;;19.61;50.34;101810.72;5032569;28;20036;-80
2022/05/10 06:00:38;;;;;;;0.10;0.10;;;;;;;19.66;50.76;101808.72;5032751;28;20025;-80
2022/05/10 06:03:05;;;;;;;0.08;0.08;;;;;;;19.72;50.27;101799.53;5029655;28;20045;-80
2022/05/10 06:05:31;;;;;;;0.17;0.17;;;;;;;19.75;50.09;101794.03;5035501;28;20030;-80
2022/05/10 06:07:58;;;;;;;0.22;0.22;;;;;;;19.87;50.10;101790.81;5036974;28;20029;-80
2022/05/10 06:10:24;;;;;;;0.10;0.10;;;;;;;19.93;49.79;101791.50;5037000;28;20030;-80
2022/05/10 06:12:51;;;;;;;0.20;0.20;;;;;;;19.98;49.71;101784.97;5036032;28;20026;-80
2022/05/10 06:15:19;;;;;;;0.75;0.75;;;;;;;20.07;49.74;101789.06;5044579;22;20053;-82
2022/05/10 06:17:47;;;;;;;1.65;1.55;;;;;;;20.12;49.71;101786.16;5015881;28;20052;-81
2022/05/10 06:20:18;;;;;;;0.28;0.28;;;;;;;20.22;49.85;101774.03;5016222;28;20450;-82
2022/05/10 06:22:45;;;;;;;0.17;0.17;;;;;;;20.31;49.57;101775.44;5015046;28;20040;-82
2022/05/10 06:25:15;;;;;;;0.10;0.10;;;;;;;20.39;49.70;101775.97;5013203;28;20034;-82
2022/05/10 06:27:41;;;;;;;0.08;0.08;;;;;;;20.46;49.49;101779.22;5015744;28;20041;-82
2022/05/10 06:30:08;;;;;;;3.20;0.50;;;;;;;20.52;49.57;101770.84;5015952;28;20032;-82
2022/05/10 06:32:34;;;;;;;2.95;1.13;;;;;;;20.60;49.40;101768.69;5012522;28;20026;-83
2022/05/10 06:35:00;;;;;;;0.70;0.70;;;;;;;20.71;49.71;101778.06;5015595;28;20105;-83
2022/05/10 06:40:15;;;;;;;1.00;1.00;;;;;;;20.84;48.89;101766.66;5015210;28;20069;-80
2022/05/10 06:42:42;;;;;;;0.10;0.10;;;;;;;20.93;48.68;101768.03;5014356;28;20034;-80
2022/05/10 06:45:10;;;;;;;0.22;0.22;;;;;;;20.99;47.76;101764.16;5014896;28;20040;-82
2022/05/10 06:47:38;;;;;;;0.10;0.10;;;;;;;21.04;47.45;101764.81;5014813;28;20034;-81
2022/05/10 06:50:07;;;;;;;0.10;0.10;;;;;;;21.15;47.65;101761.59;5014917;28;20057;-82
2022/05/10 06:52:33;;;;;;;0.15;0.15;;;;;;;21.25;47.58;101762.88;5016031;28;20030;-82
2022/05/10 06:54:59;;;;;;;0.47;0.47;;;;;;;21.28;47.00;101741.16;5014985;28;20038;-82
2022/05/10 06:57:25;;;;;;;0.30;0.30;;;;;;;21.34;47.57;101743.50;5015523;28;20116;-81
2022/05/10 06:59:54;;;;;;;0.10;0.10;;;;;;;21.45;47.35;101734.03;5007089;28;20132;-82
2022/05/10 07:02:21;;;;;;;0.10;0.10;;;;;;;21.54;47.06;101735.38;5005677;28;20030;-81
2022/05/10 07:04:47;;;;;;;0.65;0.65;;;;;;;21.63;47.11;101726.81;5004076;28;20057;-80
2022/05/10 07:07:13;;;;;;;0.05;0.05;;;;;;;21.69;46.41;101720.25;5007834;28;20045;-82
2022/05/10 07:09:39;;;;;;;1.45;1.35;;;;;;;21.80;46.29;101725.94;5012548;28;20117;-81
2022/05/10 07:12:06;;;;;;;0.13;0.13;;;;;;;21.80;45.65;101726.78;5012332;28;20034;-81
2022/05/10 07:14:32;;;;;;;0.52;0.52;;;;;;;21.88;45.95;101715.59;5012555;28;20486;-82
2022/05/10 07:16:58;;;;;;;0.60;0.60;;;;;;;21.95;45.88;101725.09;5012664;28;20048;-81
2022/05/10 07:19:24;;;;;;;0.52;0.52;;;;;;;21.93;45.86;101723.44;5012688;28;20484;-81
2022/05/10 07:21:50;;;;;;;0.10;0.10;;;;;;;21.92;45.78;101721.69;5013141;28;20050;-81
2022/05/10 07:24:19;;;;;;;1.13;0.80;;;;;;;22.10;45.88;101722.53;5013937;28;20021;-82
2022/05/10 07:26:45;;;;;;;1.65;0.93;;;;;;;22.09;45.73;101718.06;5015856;28;20038;-82
2022/05/10 07:29:12;;;;;;;1.27;1.27;;;;;;;22.16;45.29;101722.19;5012718;28;20512;-81
2022/05/10 07:31:39;;;;;;;0.00;0.00;;;;;;;22.18;45.46;101720.28;5016638;28;20438;-82
2022/05/10 07:34:05;;;;;;;0.65;0.65;;;;;;;22.30;45.54;101708.78;5017769;28;20038;-81
2022/05/10 07:36:35;;;;;;;0.68;0.68;;;;;;;22.39;45.92;101709.25;5018822;28;20041;-82
2022/05/10 07:39:05;;;;;;;5.05;0.98;;;;;;;22.43;45.29;101713.53;5018208;28;20105;-81
2022/05/10 07:41:32;;;;;;;1.40;1.30;;;;;;;22.45;45.44;101711.63;5018009;28;20026;-82
2022/05/10 07:43:58;;;;;;;1.30;0.57;;;;;;;22.49;45.33;101723.97;5016823;28;20075;-81
2022/05/10 07:46:25;;;;;;;0.20;0.20;;;;;;;22.51;45.83;101722.06;5014886;28;20117;-81
2022/05/10 07:48:51;;;;;;;0.40;0.40;;;;;;;22.57;45.72;101716.31;5019334;28;20066;-82
2022/05/10 07:51:18;;;;;;;0.45;0.45;;;;;;;22.66;46.38;101719.47;5009064;28;20097;-81
2022/05/10 07:53:44;;;;;;;0.15;0.15;;;;;;;22.75;45.68;101708.13;5015028;28;20025;-81
2022/05/10 07:56:10;;;;;;;0.55;0.55;;;;;;;22.85;45.54;101700.34;5015856;28;20030;-81
2022/05/10 07:58:36;;;;;;;2.85;0.43;;;;;;;22.94;44.96;101692.59;5017946;28;20030;-81
2022/05/10 08:01:05;;;;;;;0.85;0.85;;;;;;;23.05;44.65;101699.19;5017261;28;20037;-81
2022/05/10 08:03:31;;;;;;;0.35;0.35;;;;;;;23.15;44.74;101689.56;5018023;28;20041;-82
2022/05/10 08:05:59;;;;;;;0.10;0.10;;;;;;;23.23;44.25;101690.00;5017882;28;20544;-81
2022/05/10 08:08:28;;;;;;;0.60;0.60;;;;;;;23.47;44.33;101688.63;5018166;28;20032;-81
2022/05/10 08:10:55;;;;;;;0.45;0.45;;;;;;;23.50;43.12;101694.72;5017953;28;20024;-81
2022/05/10 08:13:25;;;;;;;0.10;0.10;;;;;;;23.52;42.75;101692.78;5018333;28;20454;-81
2022/05/10 08:15:52;;;;;;;0.55;0.55;;;;;;;23.63;43.00;101694.81;5015031;28;21007;-81
2022/05/10 08:18:20;;;;;;;0.17;0.17;;;;;;;23.69;42.69;101712.50;5012912;28;20030;-81
2022/05/10 08:20:46;;;;;;;1.30;1.20;;;;;;;23.72;41.36;101696.09;5017032;28;20014;-82
2022/05/10 08:23:23;;;;;;;0.47;0.47;;;;;;;23.74;41.17;101691.47;5018119;28;20034;-81
2022/05/10 08:25:51;;;;;;;0.08;0.08;;;;;;;23.93;41.29;101690.34;5018728;28;20040;-81
2022/05/10 08:28:17;;;;;;;0.40;0.40;;;;;;;24.06;40.66;101692.16;5018546;28;20034;-82
2022/05/10 08:30:46;;;;;;;0.30;0.30;;;;;;;24.21;40.73;101692.13;5019795;28;20034;-82
2022/05/10 08:33:17;;;;;;;0.20;0.20;;;;;;;24.22;40.36;101685.75;5018192;28;20030;-83
2022/05/10 08:35:43;;;;;;;0.30;0.30;;;;;;;24.38;39.91;101694.59;5015683;28;20531;-82
2022/05/10 08:38:09;;;;;;;1.98;1.20;;;;;;;24.38;40.21;101686.47;5014758;28;20038;-82
2022/05/10 08:40:41;;;;;;;0.10;0.10;;;;;;;24.42;40.39;101676.31;5018355;28;20494;-83
2022/05/10 08:43:15;;;;;;;0.28;0.20;;;;;;;24.67;40.12;101674.72;5018131;28;20136;-82
2022/05/10 08:45:44;;;;;;;0.13;0.13;;;;;;;24.83;39.98;101675.44;5019286;28;20025;-83
2022/05/10 08:48:10;;;;;;;0.10;0.10;;;;;;;24.90;38.93;101686.75;5015481;28;20045;-82
2022/05/10 08:50:38;;;;;;;0.10;0.10;;;;;;;24.93;38.68;101672.13;5006579;28;20472;-82
2022/05/10 08:53:07;;;;;;;0.10;0.10;;;;;;;25.10;38.91;101682.69;5004997;28;20405;-82
2022/05/10 08:55:38;;;;;;;0.80;0.80;;;;;;;25.13;39.14;101677.03;5004811;28;20025;-83
2022/05/10 09:01:00;;;;;;;0.50;0.50;;;;;;;25.41;38.08;101675.19;5110463;27;20383;-80
2022/05/10 09:03:53;;;;;;;0.22;0.22;;;;;;;25.60;37.91;101682.03;5093345;28;20097;-85
2022/05/10 09:06:59;;;;;;;0.98;0.75;;;;;;;25.71;37.73;101681.25;5098736;28;20051;-85
2022/05/10 09:09:28;;;;;;;0.30;0.30;;;;;;;25.51;36.86;101687.09;5089195;28;20025;-84
2022/05/10 09:12:18;;;;;;;1.45;0.25;;;;;;;25.51;37.16;101670.81;5088454;28;20074;-85
2022/05/10 09:14:57;;;;;;;0.20;0.20;;;;;;;25.43;36.77;101683.19;5089362;28;20039;-85
2022/05/10 09:17:29;;;;;;;0.20;0.20;;;;;;;25.49;37.33;101674.63;5097304;28;20054;-85
2022/05/10 09:19:56;;;;;;;0.70;0.70;;;;;;;25.40;37.16;101673.44;5095233;28;20032;-85
2022/05/10 09:22:54;;;;;;;0.35;0.35;;;;;;;25.37;36.69;101679.06;5102369;28;20088;-85
2022/05/10 09:25:34;;;;;;;0.10;0.10;;;;;;;25.38;36.80;101682.66;5092789;28;20096;-85
2022/05/10 09:28:23;;;;;;;0.13;0.13;;;;;;;25.28;37.07;101685.09;5068506;28;20054;-84
2022/05/10 09:36:28;;;;;;;0.30;0.30;;;;;;;25.38;37.50;101679.94;5072046;28;20060;-81
2022/05/10 09:39:01;;;;;;;0.20;0.20;;;;;;;25.48;37.37;101687.34;5094534;28;20028;-85
2022/05/10 09:41:41;;;;;;;0.20;0.20;;;;;;;25.52;37.23;101680.72;5090281;28;20503;-85
2022/05/10 09:44:22;;;;;;;1.55;1.20;;;;;;;25.47;36.90;101680.16;5084388;28;20028;-86
2022/05/10 09:46:49;;;;;;;0.25;0.25;;;;;;;25.47;36.88;101684.72;5079853;28;20055;-85
2022/05/10 09:49:37;;;;;;;1.08;0.22;;;;;;;25.56;36.69;101672.34;5088207;28;20535;-85
2022/05/10 09:52:05;;;;;;;0.28;0.28;;;;;;;25.63;36.91;101673.66;5087774;28;20410;-85
2022/05/10 09:57:27;;;;;;;1.48;1.38;;;;;;;25.82;36.38;101673.19;5191895;27;20371;-84
2022/05/10 09:59:54;;;;;;;0.20;0.20;;;;;;;25.77;36.54;101670.84;5170785;27;20463;-86
2022/05/10 10:02:32;;;;;;;0.43;0.43;;;;;;;25.91;36.26;101683.41;5170612;27;20019;-86
2022/05/10 10:05:21;;;;;;;0.30;0.30;;;;;;;26.07;36.04;101677.78;5163990;27;20050;-86
2022/05/10 10:07:50;;;;;;;0.35;0.30;;;;;;;26.06;35.72;101673.31;5150639;27;20407;-88
2022/05/10 10:10:37;;;;;;;0.10;0.10;;;;;;;26.32;35.67;101670.53;5150075;27;20128;-88
2022/05/10 10:16:01;;;;;;;0.10;0.10;;;;;;;26.20;35.49;101671.44;5109798;27;20366;-88
2022/05/10 10:18:47;;;;;;;0.17;0.17;;;;;;;26.14;34.98;101692.66;5109161;28;20495;-88
2022/05/10 10:21:20;;;;;;;0.63;0.63;;;;;;;26.08;35.13;101684.06;5109104;28;20035;-88
2022/05/10 10:23:56;;;;;;;0.20;0.20;;;;;;;25.89;35.18;101679.94;5109495;28;20059;-89
2022/05/10 10:26:42;;;;;;;0.10;0.10;;;;;;;26.04;35.23;101688.81;5109296;28;20491;-88
2022/05/10 10:29:39;;;;;;;0.10;0.10;;;;;;;26.19;34.78;101702.31;5109541;28;20024;-88
2022/05/10 10:32:11;;;;;;;0.47;0.47;;;;;;;26.18;34.73;101666.09;5100687;28;20019;-88
2022/05/10 10:34:50;;;;;;;0.10;0.10;;;;;;;26.22;35.08;101674.91;5109030;28;20020;-88
2022/05/10 10:37:25;;;;;;;0.10;0.10;;;;;;;26.07;34.87;101677.78;5109155;28;20073;-89
2022/05/10 10:40:08;;;;;;;0.20;0.20;;;;;;;26.11;34.71;101665.69;5109287;28;20032;-87
2022/05/10 10:45:15;;;;;;;0.65;0.65;;;;;;;26.57;35.39;101669.56;5068837;28;20391;-86
2022/05/10 10:47:55;;;;;;;0.10;0.10;;;;;;;26.66;34.30;101673.44;5068726;28;20404;-87
2022/05/10 10:50:27;;;;;;;0.50;0.50;;;;;;;26.64;34.28;101659.09;5068759;28;20033;-86
2022/05/10 10:52:56;;;;;;;0.10;0.10;;;;;;;26.64;33.54;101669.97;5068810;28;20074;-86
2022/05/10 10:55:44;;;;;;;0.20;0.20;;;;;;;26.90;33.82;101653.56;5068749;28;20029;-86
2022/05/10 10:58:34;;;;;;;6.72;0.73;;;;;;;26.72;33.21;101658.53;5048517;28;20144;-87
2022/05/10 11:01:33;;;;;;;0.25;0.25;;;;;;;26.46;32.82;101673.09;5050908;28;20441;-86
2022/05/10 11:06:57;;;;;;;0.52;0.52;;;;;;;26.58;33.97;101654.13;5048844;28;20411;-86
2022/05/10 11:18:08;;;;;;;0.10;0.10;;;;;;;26.95;33.92;101651.34;5113242;27;1190081;-86
2022/05/10 11:23:26;;;;;;;0.00;0.00;;;;;;;27.21;33.55;101656.63;5053419;28;20414;-86
2022/05/10 11:26:05;;;;;;;0.10;0.10;;;;;;;27.22;33.55;101658.38;5031672;28;20108;-86
2022/05/10 11:29:05;;;;;;;0.85;0.85;;;;;;;27.06;33.94;101654.09;5029273;28;20040;-86
2022/05/10 11:36:51;;;;;;;0.20;0.20;;;;;;;27.01;34.22;101660.91;5109445;27;20426;-86
2022/05/10 11:55:41;;;;;;;4.03;1.45;;;;;;;26.84;32.72;101654.03;5099208;27;20405;-87
2022/05/10 11:58:09;;;;;;;0.10;0.10;;;;;;;26.97;33.24;101627.66;5034869;28;20072;-86
2022/05/10 12:00:55;;;;;;;1991.43;431.98;;;;;;;27.11;33.02;101630.13;5028514;28;20045;-87
2022/05/10 12:09:05;;;;;;;0.00;0.00;;;;;;;27.40;32.67;101624.31;5093686;27;20738;-86
2022/05/10 12:22:58;;;;;;;0.25;0.25;;;;;;;26.97;32.52;101622.22;5084222;28;20607;-86
2022/05/10 12:26:00;;;;;;;0.05;0.05;;;;;;;27.01;31.05;101618.25;5086187;28;20377;-86
2022/05/10 12:28:48;;;;;;;0.22;0.22;;;;;;;26.95;31.63;101624.16;5098301;28;20434;-86
2022/05/10 12:54:00;;;;;;;0.13;0.13;;;;;;;25.84;32.12;101623.28;5162323;27;20921;-84
2022/05/10 12:56:29;;;;;;;0.32;0.32;;;;;;;25.76;31.82;101617.53;5142416;27;20023;-84
2022/05/10 12:59:06;;;;;;;0.20;0.20;;;;;;;25.82;31.82;101608.94;5129754;27;20035;-86
2022/05/10 13:01:35;;;;;;;0.05;0.05;;;;;;;25.70;31.81;101620.69;5139887;27;20034;-84
2022/05/10 13:04:15;;;;;;;0.00;0.00;;;;;;;25.79;31.97;101606.44;5130105;27;20019;-83
2022/05/10 13:20:09;;;;;;;0.00;0.00;;;;;;;25.76;29.85;101600.38;5091421;27;1363016;-84
2022/05/10 13:22:35;;;;;;;;;;;;;;;25.97;29.84;101603.34;5116713;28;20089;-81
2022/05/10 13:25:05;;;;;;;0.32;0.32;;;;;;;25.48;29.96;101611.38;5113174;28;19908;-83
2022/05/10 13:30:18;;;;;;;0.88;0.85;;;;;;;25.49;29.55;101588.66;5106246;28;20144;-80
2022/05/10 13:32:48;;;;;;;0.00;0.00;;;;;;;25.47;29.65;101593.34;5088845;28;20394;-83
2022/05/10 13:35:35;;;;;;;0.30;0.30;;;;;;;25.42;28.59;101594.66;5072083;28;20115;-81
2022/05/10 13:43:34;;;;;;;0.10;0.10;;;;;;;25.38;27.67;101588.56;5173941;27;20408;-83
2022/05/10 13:48:48;;;;;;;0.00;0.00;;;;;;;25.42;27.50;101581.97;5081473;28;20387;-84
2022/05/10 13:51:20;;;;;;;0.00;0.00;;;;;;;25.38;27.87;101588.56;5079795;28;20033;-83
2022/05/10 13:54:06;;;;;;;0.00;0.00;;;;;;;25.32;26.44;101597.09;5072855;28;20042;-83
2022/05/10 13:56:39;;;;;;;0.10;0.10;;;;;;;25.18;26.76;101601.69;5080369;28;20056;-83
2022/05/10 13:59:11;;;;;;;0.10;0.10;;;;;;;24.86;27.73;101610.19;5078835;28;20025;-84
2022/05/10 14:04:30;;;;;;;2.80;0.98;;;;;;;24.62;28.65;101606.41;5125072;27;20868;-83
2022/05/10 14:07:04;;;;;;;0.10;0.10;;;;;;;24.50;28.72;101598.13;5099799;28;20032;-82
2022/05/10 14:09:40;;;;;;;0.10;0.10;;;;;;;24.59;29.07;101606.63;5093411;28;20021;-83
2022/05/10 14:12:15;;;;;;;0.63;0.57;;;;;;;24.35;29.93;101609.97;5093950;28;20028;-81
2022/05/10 14:14:41;;;;;;;0.00;0.00;;;;;;;24.08;30.50;101618.97;5099262;28;20118;-82
2022/05/10 14:17:08;;;;;;;0.10;0.10;;;;;;;24.08;30.98;101602.72;5098210;28;20058;-83
2022/05/10 14:19:45;;;;;;;0.10;0.10;;;;;;;23.94;31.31;101606.34;5097078;28;20032;-83